Time;durP1;ratioP1;P1;durP2;ratioP2;P2;SDS_P1;SDS_P2;PMS_P1;PMS_P2;Temp;Humidity;BMP_temperature;BMP_pressure;BME280_temperature;BME280_humidity;BME280_pressure;Samples;Min_cycle;Max_cycle;Signal;HPM_P1;HPM_P2
2023/03/22 00:02:13;;;;;;;15.05;4.25;;;;;;;11.53;100.00;97110.69;5062210;28;20086;-86
2023/03/22 00:04:57;;;;;;;14.80;4.47;;;;;;;11.35;100.00;97111.81;5065032;28;20121;-86
2023/03/22 00:07:42;;;;;;;20.15;4.32;;;;;;;11.45;100.00;97095.38;5057999;28;20040;-84
2023/03/22 00:10:30;;;;;;;17.73;4.07;;;;;;;11.45;100.00;97080.41;5062335;28;20044;-84
2023/03/22 00:13:14;;;;;;;19.33;4.82;;;;;;;11.52;100.00;97091.50;5064000;28;20040;-86
2023/03/22 00:16:01;;;;;;;13.30;4.30;;;;;;;11.49;100.00;97081.50;5069447;28;20043;-86
2023/03/22 00:18:45;;;;;;;15.88;4.30;;;;;;;11.18;100.00;97064.66;5065437;28;20533;-85
2023/03/22 00:21:29;;;;;;;16.63;4.22;;;;;;;11.02;100.00;97067.09;5067035;28;20079;-86
2023/03/22 00:24:14;;;;;;;10.40;3.90;;;;;;;11.31;100.00;97034.56;5060413;28;20422;-86
2023/03/22 00:26:58;;;;;;;14.52;4.43;;;;;;;11.13;100.00;97041.75;5064448;28;20044;-87
2023/03/22 00:29:42;;;;;;;15.23;4.53;;;;;;;11.23;100.00;97031.34;5061922;28;20044;-87
2023/03/22 00:32:26;;;;;;;19.85;4.60;;;;;;;11.25;100.00;97018.78;5063201;28;20039;-88
2023/03/22 00:35:14;;;;;;;15.43;4.28;;;;;;;11.27;100.00;97011.44;5067052;28;20059;-88
2023/03/22 00:38:05;;;;;;;15.50;4.03;;;;;;;11.48;100.00;97034.44;5070069;28;20039;-87
2023/03/22 00:40:49;;;;;;;11.77;3.90;;;;;;;11.42;100.00;97008.13;5060629;28;20082;-86
2023/03/22 00:43:34;;;;;;;16.05;4.07;;;;;;;11.42;100.00;97002.09;5064173;28;20044;-86
2023/03/22 00:46:19;;;;;;;14.98;4.47;;;;;;;11.24;100.00;97005.88;5061041;28;20044;-86
2023/03/22 00:49:04;;;;;;;14.63;4.18;;;;;;;11.29;100.00;96998.03;5060460;28;20119;-86
2023/03/22 00:51:48;;;;;;;18.60;4.72;;;;;;;11.57;100.00;97004.06;5062124;28;20497;-86
2023/03/22 00:54:32;;;;;;;9.20;3.92;;;;;;;11.45;100.00;96995.53;5062749;28;20040;-87
2023/03/22 00:57:16;;;;;;;14.23;3.83;;;;;;;11.61;100.00;96999.88;5060046;28;20128;-88
2023/03/22 01:00:14;;;;;;;19.00;4.30;;;;;;;11.64;100.00;96977.56;5058474;28;20140;-87
2023/03/22 01:03:02;;;;;;;17.90;4.88;;;;;;;11.64;100.00;96972.31;5062823;28;20063;-86
2023/03/22 01:05:48;;;;;;;16.48;4.75;;;;;;;11.43;100.00;96980.03;5063550;28;20044;-86
2023/03/22 01:08:33;;;;;;;17.75;4.03;;;;;;;11.52;100.00;96965.41;5062084;28;20097;-87
2023/03/22 01:11:17;;;;;;;13.55;4.30;;;;;;;11.70;100.00;96971.31;5057746;28;20075;-87
2023/03/22 01:14:02;;;;;;;21.88;3.97;;;;;;;11.57;100.00;96962.78;5057691;28;20415;-87
2023/03/22 01:16:46;;;;;;;16.70;3.90;;;;;;;11.73;100.00;96943.72;5063483;28;20048;-85
2023/03/22 01:19:30;;;;;;;17.17;3.80;;;;;;;11.68;100.00;96936.59;5057283;28;20043;-84
2023/03/22 01:22:15;;;;;;;13.00;4.57;;;;;;;11.33;100.00;96924.78;5061371;28;20094;-84
2023/03/22 01:24:59;;;;;;;15.13;4.38;;;;;;;11.22;100.00;96927.34;5060597;28;20032;-83
2023/03/22 01:27:43;;;;;;;14.80;3.70;;;;;;;11.43;100.00;96901.25;5056998;28;20040;-85
2023/03/22 01:30:28;;;;;;;13.00;3.45;;;;;;;11.45;100.00;96896.53;5060606;28;20075;-84
2023/03/22 01:33:19;;;;;;;14.10;3.60;;;;;;;11.49;100.00;96873.94;5067266;28;20078;-84
2023/03/22 01:36:03;;;;;;;16.63;4.13;;;;;;;11.50;100.00;96867.66;5058399;28;20110;-85
2023/03/22 01:38:48;;;;;;;15.18;3.38;;;;;;;11.39;100.00;96866.00;5059124;28;20055;-85
2023/03/22 01:41:33;;;;;;;13.48;3.10;;;;;;;11.49;100.00;96860.00;5066585;28;20048;-85
2023/03/22 01:44:20;;;;;;;12.80;3.65;;;;;;;11.51;100.00;96847.44;5066615;28;20043;-87
2023/03/22 01:47:07;;;;;;;13.60;3.38;;;;;;;11.83;100.00;96851.78;5067973;28;20079;-85
2023/03/22 01:49:51;;;;;;;13.88;3.72;;;;;;;11.77;100.00;96847.56;5061338;28;20094;-84
2023/03/22 01:52:37;;;;;;;11.07;3.15;;;;;;;11.53;100.00;96856.63;5059202;28;20090;-85
2023/03/22 01:55:24;;;;;;;12.00;3.67;;;;;;;11.68;100.00;96852.50;5060937;28;20035;-84
2023/03/22 01:58:09;;;;;;;13.50;3.20;;;;;;;11.62;100.00;96866.69;5062060;28;20438;-86
2023/03/22 02:00:53;;;;;;;8.30;3.10;;;;;;;11.60;100.00;96845.91;5067200;28;20535;-85
2023/03/22 02:04:05;;;;;;;14.60;3.42;;;;;;;11.73;100.00;96849.91;5064931;28;20418;-85
2023/03/22 02:06:54;;;;;;;11.00;2.58;;;;;;;11.76;100.00;96846.75;5062282;28;20151;-84
2023/03/22 02:09:40;;;;;;;8.50;2.45;;;;;;;11.74;100.00;96832.31;5058618;28;20047;-84
2023/03/22 02:12:43;;;;;;;10.93;3.45;;;;;;;11.77;100.00;96855.44;5057875;28;20044;-84
2023/03/22 02:15:47;;;;;;;10.63;3.13;;;;;;;11.66;100.00;96846.72;5060050;28;20428;-85
2023/03/22 02:19:08;;;;;;;9.93;2.83;;;;;;;11.71;100.00;96846.72;5057040;28;20166;-84
2023/03/22 02:22:28;;;;;;;14.60;3.42;;;;;;;11.64;100.00;96825.16;5059272;28;20090;-83
2023/03/22 02:25:26;;;;;;;13.73;3.30;;;;;;;11.69;100.00;96827.81;5062750;28;20163;-85
2023/03/22 02:28:21;;;;;;;10.40;3.30;;;;;;;11.73;100.00;96828.09;5062309;28;20082;-85
2023/03/22 02:31:30;;;;;;;12.73;3.38;;;;;;;11.60;100.00;96821.47;5067136;28;20040;-85
2023/03/22 02:34:23;;;;;;;10.77;3.60;;;;;;;11.81;100.00;96824.97;5062940;28;20104;-86
2023/03/22 02:37:26;;;;;;;11.57;2.90;;;;;;;12.04;100.00;96828.22;5065452;28;20048;-85
2023/03/22 02:40:12;;;;;;;9.70;2.50;;;;;;;11.95;100.00;96815.56;5063460;28;20097;-85
2023/03/22 02:43:03;;;;;;;11.20;2.92;;;;;;;11.94;100.00;96802.66;5061048;28;20094;-83
2023/03/22 02:46:07;;;;;;;14.00;3.15;;;;;;;12.02;100.00;96809.28;5062380;28;20068;-85
2023/03/22 02:49:02;;;;;;;13.02;3.50;;;;;;;12.04;100.00;96815.88;5055303;28;20035;-87
2023/03/22 02:51:59;;;;;;;10.57;3.10;;;;;;;12.07;100.00;96817.19;5058867;28;20135;-86
2023/03/22 02:55:06;;;;;;;10.18;2.80;;;;;;;11.98;100.00;96815.03;5036367;28;20163;-85
2023/03/22 02:57:59;;;;;;;7.90;2.35;;;;;;;12.05;100.00;96825.34;5060548;28;20052;-84
2023/03/22 03:00:48;;;;;;;9.88;2.90;;;;;;;11.95;100.00;96793.72;5059762;28;20524;-84
2023/03/22 03:03:36;;;;;;;7.10;2.63;;;;;;;11.98;100.00;96808.97;5064899;28;20181;-84
2023/03/22 03:06:24;;;;;;;10.88;2.58;;;;;;;12.00;100.00;96804.28;5064907;28;20035;-86
2023/03/22 03:09:12;;;;;;;7.43;2.30;;;;;;;12.08;100.00;96790.63;5061611;28;20079;-86
2023/03/22 03:11:56;;;;;;;8.73;2.88;;;;;;;11.85;100.00;96787.41;5061797;28;20117;-85
2023/03/22 03:14:41;;;;;;;8.07;2.42;;;;;;;12.08;100.00;96781.94;5058716;28;20502;-85
2023/03/22 03:17:51;;;;;;;10.00;2.30;;;;;;;11.84;100.00;96772.69;5063474;28;20130;-86
2023/03/22 03:20:41;;;;;;;10.63;2.45;;;;;;;12.00;100.00;96773.50;5063140;28;20398;-86
2023/03/22 03:23:51;;;;;;;4.88;2.20;;;;;;;12.00;100.00;96743.81;5062517;28;20452;-85
2023/03/22 03:26:45;;;;;;;4.72;1.90;;;;;;;11.98;100.00;96744.06;5061094;28;20038;-85
2023/03/22 03:30:09;;;;;;;6.55;2.33;;;;;;;11.93;100.00;96722.22;5061878;28;20109;-85
2023/03/22 03:33:02;;;;;;;5.07;1.70;;;;;;;11.98;100.00;96714.31;5047635;28;20143;-85
2023/03/22 03:35:51;;;;;;;5.88;2.33;;;;;;;11.92;100.00;96699.59;5057919;28;20106;-86
2023/03/22 03:38:38;;;;;;;5.80;1.90;;;;;;;11.91;100.00;96698.03;5063070;28;20035;-84
2023/03/22 03:41:27;;;;;;;5.68;2.00;;;;;;;11.87;100.00;96674.09;5060080;28;20509;-84
2023/03/22 03:44:13;;;;;;;4.78;2.00;;;;;;;11.86;100.00;96654.91;5059291;28;20440;-84
2023/03/22 03:46:58;;;;;;;6.35;2.10;;;;;;;11.93;100.00;96722.22;5058039;28;20407;-84
2023/03/22 03:49:42;;;;;;;7.22;2.00;;;;;;;12.10;100.00;96735.16;5059912;28;21023;-84
2023/03/22 03:52:26;;;;;;;7.95;2.03;;;;;;;12.06;100.00;96721.75;5060413;28;20044;-85
2023/03/22 03:55:10;;;;;;;7.15;2.00;;;;;;;12.16;100.00;96735.94;5064228;28;20127;-87
2023/03/22 03:57:57;;;;;;;6.97;2.13;;;;;;;12.12;100.00;96739.09;5061665;28;20043;-87
2023/03/22 04:00:41;;;;;;;4.78;1.88;;;;;;;12.37;100.00;96742.03;5056598;28;20403;-86
2023/03/22 04:03:26;;;;;;;5.88;1.73;;;;;;;12.25;100.00;96737.78;5058572;28;20048;-86
2023/03/22 04:06:10;;;;;;;7.53;2.10;;;;;;;12.19;100.00;96730.19;5059353;28;20454;-87
2023/03/22 04:08:55;;;;;;;6.28;1.70;;;;;;;12.55;100.00;96722.28;5066267;28;20071;-86
2023/03/22 04:11:39;;;;;;;4.45;1.75;;;;;;;12.41;100.00;96722.81;5062620;28;20035;-85
2023/03/22 04:14:24;;;;;;;;;;;;;;;12.27;100.00;96737.53;5063575;28;20608;-86
2023/03/22 04:17:08;;;;;;;7.75;1.90;;;;;;;12.60;100.00;96732.00;5059971;28;19928;-86
2023/03/22 04:19:55;;;;;;;8.00;1.90;;;;;;;12.24;100.00;96743.34;5063730;28;20034;-85
2023/03/22 04:22:40;;;;;;;5.65;1.70;;;;;;;12.37;100.00;96745.44;5057832;28;20121;-85
2023/03/22 04:25:29;;;;;;;2.40;1.50;;;;;;;12.55;100.00;96745.97;5060163;28;20082;-85
2023/03/22 04:28:13;;;;;;;2.58;1.77;;;;;;;12.62;100.00;96756.22;5062651;28;20204;-85
2023/03/22 04:30:57;;;;;;;5.32;1.85;;;;;;;12.56;100.00;96740.44;5062087;28;20039;-85
2023/03/22 04:33:45;;;;;;;4.75;2.00;;;;;;;12.31;100.00;96757.00;5060374;28;20508;-85
2023/03/22 04:36:35;;;;;;;4.85;2.13;;;;;;;12.21;100.00;96757.00;5055647;28;20063;-83
2023/03/22 04:39:19;;;;;;;3.03;1.30;;;;;;;12.29;100.00;96764.38;5059840;28;20394;-85
2023/03/22 04:42:03;;;;;;;1.40;1.02;;;;;;;12.40;100.00;96750.19;5061422;28;20052;-85
2023/03/22 04:44:47;;;;;;;1.27;0.95;;;;;;;12.49;100.00;96768.06;5056440;28;20468;-84
2023/03/22 04:47:31;;;;;;;2.70;0.98;;;;;;;12.47;100.00;96792.00;5063905;28;20445;-85
2023/03/22 04:50:15;;;;;;;0.90;0.90;;;;;;;12.50;100.00;96794.13;5041694;28;20094;-88
2023/03/22 04:52:59;;;;;;;2.42;0.88;;;;;;;12.61;100.00;96779.13;5057770;28;20064;-89
2023/03/22 04:55:44;;;;;;;2.83;1.05;;;;;;;12.73;100.00;96785.97;5058741;28;20091;-86
2023/03/22 04:58:29;;;;;;;2.75;0.80;;;;;;;12.65;100.00;96780.19;5059450;28;20051;-86
2023/03/22 05:01:15;;;;;;;1.67;0.80;;;;;;;12.54;100.00;96791.75;5060424;28;20055;-86
2023/03/22 05:03:59;;;;;;;1.60;0.90;;;;;;;12.67;100.00;96795.69;5056499;28;20055;-85
2023/03/22 05:06:44;;;;;;;2.88;1.08;;;;;;;12.53;100.00;96801.50;5062815;28;20109;-84
2023/03/22 05:09:32;;;;;;;1.40;1.00;;;;;;;12.52;100.00;96796.47;5058461;28;22198;-85
2023/03/22 05:12:16;;;;;;;3.10;1.10;;;;;;;12.47;100.00;96789.38;5056615;28;20035;-85
2023/03/22 05:15:02;;;;;;;1.10;1.00;;;;;;;12.59;100.00;96804.13;5063043;28;20044;-85
2023/03/22 05:17:47;;;;;;;7.13;1.95;;;;;;;11.83;100.00;96786.06;5063735;28;20083;-86
2023/03/22 05:20:31;;;;;;;3.83;1.40;;;;;;;12.03;100.00;96790.63;5065065;28;20457;-87
2023/03/22 05:23:18;;;;;;;1.88;1.40;;;;;;;11.93;100.00;96777.41;5067245;28;20093;-86
2023/03/22 05:26:03;;;;;;;4.30;1.77;;;;;;;12.31;100.00;96804.34;5065664;28;20044;-86
2023/03/22 05:28:47;;;;;;;5.75;1.50;;;;;;;12.06;100.00;96805.88;5062139;28;20464;-86
2023/03/22 05:31:33;;;;;;;4.78;1.77;;;;;;;11.98;100.00;96814.22;5066961;28;20036;-86
2023/03/22 05:34:19;;;;;;;8.52;2.13;;;;;;;11.74;100.00;96798.91;5065888;28;20134;-86
2023/03/22 05:37:03;;;;;;;11.43;2.10;;;;;;;11.79;100.00;96822.59;5060987;28;20158;-87
2023/03/22 05:39:47;;;;;;;13.50;2.40;;;;;;;11.71;100.00;96816.00;5064660;28;20098;-87
2023/03/22 05:42:31;;;;;;;11.32;2.00;;;;;;;11.73;100.00;96814.97;5063759;28;20047;-86
2023/03/22 05:45:15;;;;;;;12.43;2.42;;;;;;;11.58;100.00;96811.22;5062864;28;20035;-86
2023/03/22 05:48:03;;;;;;;8.05;2.20;;;;;;;11.67;100.00;96829.91;5066077;28;20047;-83
2023/03/22 05:50:47;;;;;;;14.27;2.67;;;;;;;11.49;100.00;96831.09;5065950;28;20606;-84
2023/03/22 05:53:32;;;;;;;12.00;3.55;;;;;;;11.73;100.00;96846.50;5066373;28;20131;-84
2023/03/22 05:56:16;;;;;;;12.15;2.80;;;;;;;11.57;100.00;96847.19;5061169;28;20115;-85
2023/03/22 05:59:02;;;;;;;11.02;2.63;;;;;;;11.53;100.00;96848.75;5063804;28;20051;-84
2023/03/22 06:01:46;;;;;;;15.65;2.78;;;;;;;11.67;100.00;96849.06;5058136;28;20506;-83
2023/03/22 06:04:30;;;;;;;9.38;2.85;;;;;;;11.52;100.00;96857.69;5065038;28;20086;-84
2023/03/22 06:07:15;;;;;;;19.65;2.88;;;;;;;11.57;100.00;96849.03;5063345;28;20095;-86
2023/03/22 06:09:59;;;;;;;12.70;3.30;;;;;;;11.48;100.00;96853.97;5061725;28;20039;-86
2023/03/22 06:12:44;;;;;;;18.90;3.25;;;;;;;11.32;100.00;96854.94;5064323;28;20095;-85
2023/03/22 06:15:28;;;;;;;15.15;2.83;;;;;;;11.46;100.00;96863.16;5067534;28;20039;-86
2023/03/22 06:18:12;;;;;;;20.17;3.80;;;;;;;11.47;100.00;96867.34;5070742;28;20094;-84
2023/03/22 06:20:56;;;;;;;18.65;3.88;;;;;;;11.33;100.00;96880.94;5065354;28;20105;-84
2023/03/22 06:23:42;;;;;;;16.10;3.80;;;;;;;11.51;100.00;96863.19;5061588;28;20056;-83
2023/03/22 06:26:26;;;;;;;21.15;4.68;;;;;;;11.46;100.00;96887.59;5061358;28;20063;-84
2023/03/22 06:29:11;;;;;;;15.60;3.65;;;;;;;11.34;100.00;96895.66;5063343;28;20079;-83
2023/03/22 06:31:55;;;;;;;18.67;4.97;;;;;;;11.33;100.00;96906.41;5063537;28;20155;-85
2023/03/22 06:34:39;;;;;;;23.55;5.65;;;;;;;11.03;100.00;96905.16;5067612;28;20194;-86
2023/03/22 06:37:31;;;;;;;23.98;4.75;;;;;;;11.08;100.00;96907.81;5067097;28;20051;-87
2023/03/22 06:40:16;;;;;;;26.45;4.80;;;;;;;11.15;100.00;96926.75;5064861;28;20048;-87
2023/03/22 06:43:00;;;;;;;25.92;4.40;;;;;;;11.40;100.00;96930.66;5060805;28;20102;-89
2023/03/22 06:45:48;;;;;;;24.83;4.40;;;;;;;11.24;100.00;96933.16;5067406;28;20039;-87
2023/03/22 06:48:32;;;;;;;23.10;4.45;;;;;;;11.25;100.00;96934.72;5059739;28;20039;-89
2023/03/22 06:51:16;;;;;;;29.73;5.25;;;;;;;11.33;100.00;96943.19;5060956;28;20052;-88
2023/03/22 06:54:00;;;;;;;33.92;6.03;;;;;;;11.05;100.00;96952.94;5066531;28;20036;-88
2023/03/22 06:56:44;;;;;;;29.98;5.55;;;;;;;10.98;100.00;96943.41;5067230;28;20046;-88
2023/03/22 06:59:31;;;;;;;21.88;4.90;;;;;;;10.98;100.00;96955.75;5068413;28;20072;-89
2023/03/22 07:02:16;;;;;;;26.00;5.45;;;;;;;10.93;100.00;96974.88;5063407;28;20067;-88
2023/03/22 07:05:00;;;;;;;36.28;5.85;;;;;;;10.90;100.00;96966.69;5058568;28;20386;-87
2023/03/22 07:07:44;;;;;;;25.13;5.60;;;;;;;11.33;100.00;97003.59;5058571;28;20443;-84
2023/03/22 07:10:29;;;;;;;28.83;5.97;;;;;;;11.04;100.00;96985.50;5059594;28;20160;-85
2023/03/22 07:13:13;;;;;;;35.53;6.25;;;;;;;10.89;100.00;97000.03;5058254;28;20051;-84
2023/03/22 07:15:59;;;;;;;33.63;6.43;;;;;;;10.88;100.00;97001.06;5065027;28;20502;-88
2023/03/22 07:18:43;;;;;;;28.23;6.50;;;;;;;10.75;100.00;97011.94;5067978;28;20044;-88
2023/03/22 07:21:27;;;;;;;29.75;6.22;;;;;;;10.86;100.00;97011.81;5063926;28;20067;-86
2023/03/22 07:24:13;;;;;;;28.15;6.43;;;;;;;10.40;100.00;96998.94;5059502;28;20059;-86
2023/03/22 07:26:57;;;;;;;25.60;5.75;;;;;;;10.47;100.00;97011.13;5059492;28;20090;-88
2023/03/22 07:29:41;;;;;;;28.95;5.70;;;;;;;10.45;100.00;97005.31;5062446;28;20040;-86
2023/03/22 07:32:26;;;;;;;32.65;6.00;;;;;;;10.51;100.00;97004.34;5063715;28;20043;-85
2023/03/22 07:35:10;;;;;;;36.00;6.35;;;;;;;10.64;100.00;97009.22;5061243;28;20052;-86
2023/03/22 07:37:54;;;;;;;23.05;5.30;;;;;;;10.63;100.00;97023.38;5058793;28;20124;-85
2023/03/22 07:40:39;;;;;;;30.77;5.53;;;;;;;10.50;100.00;97008.00;5058498;28;20090;-85
2023/03/22 07:43:23;;;;;;;30.20;5.75;;;;;;;10.55;100.00;97021.97;5059760;28;20035;-86
2023/03/22 07:46:07;;;;;;;36.42;5.35;;;;;;;10.29;100.00;97011.13;5061167;28;21342;-84
2023/03/22 07:49:03;;;;;;;25.83;5.07;;;;;;;10.54;100.00;97015.16;5061290;28;20437;-87
2023/03/22 07:51:47;;;;;;;31.35;5.82;;;;;;;10.62;100.00;97032.28;5067747;28;20113;-87
2023/03/22 07:54:31;;;;;;;31.55;6.32;;;;;;;10.55;100.00;97013.28;5058543;28;20094;-84
2023/03/22 07:57:16;;;;;;;35.47;6.43;;;;;;;10.97;100.00;97025.84;5063356;28;20035;-88
2023/03/22 08:00:00;;;;;;;37.10;6.57;;;;;;;11.02;100.00;97034.81;5059229;28;20510;-85
2023/03/22 08:02:44;;;;;;;45.63;7.97;;;;;;;10.95;100.00;97035.78;5061275;28;20573;-86
2023/03/22 08:05:28;;;;;;;33.90;7.35;;;;;;;10.85;100.00;97036.47;5062587;28;20059;-85
2023/03/22 08:08:12;;;;;;;35.15;6.53;;;;;;;11.11;100.00;97039.38;5066101;28;20070;-89
2023/03/22 08:10:57;;;;;;;39.38;5.80;;;;;;;10.88;100.00;97014.19;5064562;28;20066;-88
2023/03/22 08:13:41;;;;;;;37.92;6.53;;;;;;;10.99;100.00;97047.38;5059879;28;20043;-86
2023/03/22 08:16:25;;;;;;;37.65;6.47;;;;;;;11.02;100.00;97042.69;5055426;28;20121;-83
2023/03/22 08:19:10;;;;;;;35.25;6.13;;;;;;;10.96;100.00;97032.13;5060554;28;20123;-87
2023/03/22 08:21:57;;;;;;;32.67;6.68;;;;;;;11.04;100.00;97043.25;5062565;28;20044;-85
2023/03/22 08:24:41;;;;;;;36.20;6.05;;;;;;;10.86;100.00;97053.03;5061170;28;20039;-83
2023/03/22 08:27:26;;;;;;;33.10;6.75;;;;;;;10.86;100.00;97059.06;5062422;28;20467;-85
2023/03/22 08:30:11;;;;;;;35.60;6.43;;;;;;;11.13;100.00;97049.63;5059424;28;20043;-82
2023/03/22 08:32:55;;;;;;;30.52;6.03;;;;;;;10.90;100.00;97051.50;5056646;28;20039;-81
2023/03/22 08:35:40;;;;;;;38.60;6.97;;;;;;;11.21;100.00;97059.72;5059883;28;20110;-84
2023/03/22 08:38:24;;;;;;;35.75;5.80;;;;;;;10.81;100.00;97056.38;5061235;28;20366;-82
2023/03/22 08:41:08;;;;;;;40.90;6.00;;;;;;;10.83;100.00;97049.03;5059498;28;20040;-84
2023/03/22 08:43:52;;;;;;;26.33;6.25;;;;;;;11.16;100.00;97062.25;5054979;28;20124;-83
2023/03/22 08:46:36;;;;;;;29.80;6.95;;;;;;;11.19;100.00;97058.34;5056885;28;20035;-84
2023/03/22 08:49:20;;;;;;;23.60;5.65;;;;;;;11.40;100.00;97057.50;5055780;28;20094;-85
2023/03/22 08:52:06;;;;;;;31.35;6.25;;;;;;;11.37;100.00;97051.94;5062023;28;20056;-85
2023/03/22 08:54:52;;;;;;;26.23;6.15;;;;;;;11.07;100.00;97050.63;5068588;28;20040;-87
2023/03/22 08:57:36;;;;;;;36.92;6.18;;;;;;;11.40;100.00;97048.84;5065564;28;20040;-86
2023/03/22 09:00:20;;;;;;;25.52;5.32;;;;;;;11.54;100.00;97052.63;5061698;28;20557;-83
2023/03/22 09:03:04;;;;;;;31.02;6.35;;;;;;;11.49;100.00;97068.34;5059550;28;20566;-85
2023/03/22 09:05:49;;;;;;;25.65;5.80;;;;;;;11.34;100.00;97063.75;5063966;28;20036;-87
2023/03/22 09:08:34;;;;;;;27.65;5.82;;;;;;;11.40;100.00;97059.34;5064144;28;20047;-87
2023/03/22 09:11:18;;;;;;;29.92;6.45;;;;;;;11.32;100.00;97088.69;5063083;28;20039;-86
2023/03/22 09:14:03;;;;;;;31.50;5.35;;;;;;;11.58;100.00;97077.38;5056518;28;20055;-87
2023/03/22 09:16:47;;;;;;;37.22;5.70;;;;;;;11.20;100.00;97078.31;5058736;28;20047;-87
2023/03/22 09:19:31;;;;;;;26.27;5.78;;;;;;;11.62;100.00;97071.63;5056866;28;20039;-86
2023/03/22 09:22:15;;;;;;;26.25;5.82;;;;;;;11.48;100.00;97069.41;5063455;28;20040;-87
2023/03/22 09:24:59;;;;;;;36.05;5.88;;;;;;;11.61;100.00;97072.69;5065424;28;21015;-86
2023/03/22 09:27:43;;;;;;;29.02;6.07;;;;;;;11.85;100.00;97088.88;5068057;28;20040;-86
2023/03/22 09:30:27;;;;;;;35.50;6.00;;;;;;;11.92;100.00;97094.75;5065687;28;20047;-86
2023/03/22 09:33:12;;;;;;;28.02;5.93;;;;;;;11.81;100.00;97100.94;5058118;28;20094;-85
2023/03/22 09:35:56;;;;;;;33.00;5.68;;;;;;;11.66;100.00;97091.88;5059836;28;20465;-86
2023/03/22 09:38:40;;;;;;;31.30;5.93;;;;;;;12.05;100.00;97083.03;5061346;28;20036;-86
2023/03/22 09:41:33;;;;;;;32.13;6.20;;;;;;;12.06;100.00;97087.25;5058315;28;20108;-84
2023/03/22 09:44:27;;;;;;;23.48;4.97;;;;;;;12.32;100.00;97076.88;5068692;28;20043;-85
2023/03/22 09:47:19;;;;;;;25.98;5.20;;;;;;;12.39;97.35;97085.38;5059280;28;20047;-81
2023/03/22 09:50:17;;;;;;;26.48;5.10;;;;;;;11.92;94.58;97086.84;5061190;28;20059;-81
2023/03/22 09:53:01;;;;;;;20.08;4.90;;;;;;;11.76;92.12;97075.41;5061130;28;20561;-81
2023/03/22 09:55:58;;;;;;;21.55;4.68;;;;;;;11.83;91.77;97083.09;5060113;28;20090;-83
2023/03/22 09:58:42;;;;;;;22.65;4.82;;;;;;;11.93;88.03;97085.00;5061856;28;20048;-82
2023/03/22 10:01:50;;;;;;;25.83;5.35;;;;;;;12.16;90.98;97067.31;5065704;28;20054;-83
2023/03/22 10:04:34;;;;;;;28.85;5.15;;;;;;;12.40;90.29;97083.50;5064763;28;20077;-82
2023/03/22 10:07:37;;;;;;;19.10;4.13;;;;;;;12.05;87.20;97077.78;5064344;28;20052;-83
2023/03/22 10:10:23;;;;;;;29.02;4.78;;;;;;;11.92;84.43;97092.13;5062732;28;20116;-84
2023/03/22 10:13:20;;;;;;;19.58;4.93;;;;;;;12.04;82.51;97097.22;5062054;28;20044;-85
2023/03/22 10:16:12;;;;;;;20.00;4.80;;;;;;;12.04;81.73;97075.38;5063780;28;20044;-86
2023/03/22 10:19:34;;;;;;;25.70;5.57;;;;;;;12.17;84.02;97114.41;5064974;28;20043;-87
2023/03/22 10:22:23;;;;;;;23.73;4.53;;;;;;;12.19;85.55;97093.91;5064524;28;20042;-85
2023/03/22 10:25:08;;;;;;;25.83;4.90;;;;;;;12.42;85.40;97103.28;5058767;28;20060;-87
2023/03/22 10:27:53;;;;;;;24.40;5.05;;;;;;;12.58;86.31;97084.94;5064065;28;20047;-88
2023/03/22 10:30:40;;;;;;;25.27;5.55;;;;;;;12.65;85.98;97090.75;5061333;28;20047;-87
2023/03/22 10:33:30;;;;;;;20.58;5.07;;;;;;;12.61;85.61;97116.00;5067622;28;20043;-84
2023/03/22 10:36:17;;;;;;;31.38;5.50;;;;;;;12.67;86.19;97117.59;5069779;28;20067;-87
2023/03/22 10:39:18;;;;;;;33.80;5.57;;;;;;;12.71;85.63;97110.78;5061061;28;20098;-84
2023/03/22 10:42:07;;;;;;;32.03;6.25;;;;;;;12.68;85.48;97116.56;5058723;28;20074;-82
2023/03/22 10:44:53;;;;;;;32.50;5.68;;;;;;;12.93;85.45;97135.38;5057871;28;20378;-83
2023/03/22 10:47:42;;;;;;;24.40;5.13;;;;;;;13.35;87.91;97104.69;5063022;28;20047;-83
2023/03/22 10:50:37;;;;;;;31.35;6.18;;;;;;;13.26;87.17;97105.19;5059897;28;20497;-84
2023/03/22 10:53:31;;;;;;;;;;;;;;;13.02;83.95;97104.06;5063488;28;20040;-83
2023/03/22 10:56:17;;;;;;;;;;;;;;;13.52;84.42;97118.44;5064367;28;20393;-84
2023/03/22 10:59:02;;;;;;;27.80;7.25;;;;;;;13.83;84.73;97109.78;5068684;28;19930;-82
2023/03/22 11:01:50;;;;;;;33.28;6.32;;;;;;;14.04;85.24;97129.06;5065573;28;20052;-83
2023/03/22 11:04:38;;;;;;;24.98;6.18;;;;;;;14.10;84.09;97122.72;5058709;28;20044;-84
2023/03/22 11:07:33;;;;;;;32.60;5.97;;;;;;;13.79;81.84;97120.09;5062047;28;20059;-84
2023/03/22 11:10:20;;;;;;;40.03;6.30;;;;;;;13.97;81.80;97128.53;5060800;28;21616;-84
2023/03/22 11:13:07;;;;;;;28.23;5.85;;;;;;;13.99;81.84;97124.56;5058159;28;20043;-82
2023/03/22 11:16:01;;;;;;;30.40;4.90;;;;;;;13.99;81.02;97100.81;5059677;28;20506;-83
2023/03/22 11:18:45;;;;;;;27.83;6.50;;;;;;;13.73;80.94;97110.56;5061015;28;20066;-85
2023/03/22 11:21:32;;;;;;;25.17;5.68;;;;;;;13.80;82.02;97097.94;5066052;28;20086;-83
2023/03/22 11:24:18;;;;;;;25.45;5.72;;;;;;;14.28;83.46;97104.75;5062878;28;20055;-84
2023/03/22 11:27:06;;;;;;;22.02;5.20;;;;;;;14.38;80.47;97103.94;5062120;28;20510;-83
2023/03/22 11:29:58;;;;;;;26.05;5.10;;;;;;;14.27;78.60;97105.81;5063030;28;20106;-81
2023/03/22 11:32:43;;;;;;;24.23;5.32;;;;;;;14.48;79.33;97105.78;5061017;28;20038;-81
2023/03/22 11:35:28;;;;;;;21.83;5.38;;;;;;;14.41;78.92;97106.84;5060249;28;20086;-82
2023/03/22 11:38:35;;;;;;;24.80;5.63;;;;;;;14.75;79.26;97117.91;5062789;28;20190;-82
2023/03/22 11:41:26;;;;;;;24.10;5.75;;;;;;;14.92;77.17;97112.28;5058658;28;20124;-81
2023/03/22 11:44:16;;;;;;;26.25;5.63;;;;;;;15.23;78.68;97112.94;5060062;28;20102;-82
2023/03/22 11:47:03;;;;;;;26.85;6.65;;;;;;;15.46;76.10;97101.97;5058577;28;20395;-82
2023/03/22 11:49:50;;;;;;;30.98;6.20;;;;;;;15.80;77.91;97109.94;5059339;28;20036;-82
2023/03/22 11:52:34;;;;;;;24.10;5.50;;;;;;;15.68;73.76;97098.91;5060472;28;20382;-83
2023/03/22 11:55:19;;;;;;;19.95;5.85;;;;;;;15.39;72.85;97097.00;5062889;28;20105;-85
2023/03/22 11:58:05;;;;;;;18.27;5.88;;;;;;;15.78;72.96;97101.50;5057873;28;20055;-82
2023/03/22 12:00:52;;;;;;;22.95;5.70;;;;;;;15.81;72.57;97090.34;5062490;28;20040;-82
2023/03/22 12:03:41;;;;;;;16.10;5.03;;;;;;;15.74;70.73;97100.47;5063001;28;20456;-83
2023/03/22 12:06:30;;;;;;;22.52;5.15;;;;;;;15.60;70.39;97099.50;5063671;28;20496;-82
2023/03/22 12:09:31;;;;;;;33.00;5.63;;;;;;;15.33;70.44;97093.59;5058549;28;20044;-82
2023/03/22 12:12:23;;;;;;;25.02;5.95;;;;;;;15.62;70.59;97094.72;5056260;28;20048;-83
2023/03/22 12:15:22;;;;;;;17.60;5.43;;;;;;;15.83;68.71;97101.44;5064531;28;20157;-83
2023/03/22 12:18:14;;;;;;;16.52;5.10;;;;;;;16.38;67.91;97084.59;5061696;28;20063;-83
2023/03/22 12:20:59;;;;;;;27.10;5.40;;;;;;;16.58;68.21;97082.78;5060140;28;20097;-82
2023/03/22 12:23:46;;;;;;;20.52;5.68;;;;;;;17.01;67.31;97084.72;5062974;28;20075;-83
2023/03/22 12:26:32;;;;;;;18.73;5.18;;;;;;;16.15;66.63;97074.75;5063161;28;20044;-82
2023/03/22 12:29:18;;;;;;;22.63;5.63;;;;;;;16.59;67.69;97062.38;5059066;28;20446;-84
2023/03/22 12:32:08;;;;;;;18.15;5.10;;;;;;;17.15;67.66;97068.09;5060450;28;20114;-83
2023/03/22 12:34:52;;;;;;;20.42;5.55;;;;;;;17.46;66.55;97057.06;5060326;28;20461;-83
2023/03/22 12:37:41;;;;;;;17.10;4.68;;;;;;;17.37;66.11;97057.69;5057829;28;20045;-83
2023/03/22 12:40:31;;;;;;;19.88;5.18;;;;;;;17.15;65.50;97057.47;5052506;28;20527;-82
2023/03/22 12:43:24;;;;;;;22.25;5.38;;;;;;;16.53;65.85;97053.72;5064698;28;20097;-83
2023/03/22 12:46:20;;;;;;;;;;;;;;;16.28;66.98;97040.47;5061932;28;20433;-81
2023/03/22 12:49:31;;;;;;;15.13;5.07;;;;;;;16.19;66.47;97020.19;5059776;28;19935;-83
2023/03/22 12:52:20;;;;;;;20.08;5.13;;;;;;;16.15;66.13;97013.91;5059093;28;20036;-81
2023/03/22 12:55:09;;;;;;;28.27;6.18;;;;;;;16.16;67.25;97012.81;5059246;28;20051;-82
2023/03/22 12:57:54;;;;;;;18.02;4.93;;;;;;;16.36;66.95;97011.78;5056968;28;20043;-83